Hosston, Louisiana
Current Conditions -  °F | °C
As of 10:39 AM on Friday 21 Nov 2014 (Local Time) from KDTN Reporting Station
Light Rain Light Rain  
Wind Chill: 55°   Ceiling: 3600
Heat Index: 55°   Visibility: 5mi
Dew Point: 53°   Wind: 8mph
Humidity: 93%   Direction: 150°SSE
Pressure: 30.24"   Gusts: NA
Location:  32.89°N, 93.88°W
Report Text: KDTN 211639Z 15007KT 5SM -RA BR FEW007 BKN036 OVC049 13/12 A3024 RMK AO2 P0009 T01280117
Loading
Personal Weather Stations






























Interactive Weather Map New forecast layout! Learn more

10-Day Weather Forecast

Advertisements
Track Severe Weather on mobile